createdAt,value
2019-04-01T00:00:56.324Z,11
2019-04-01T00:01:58.490Z,11
2019-04-01T00:02:59.758Z,10.9
2019-04-01T00:04:01.139Z,11
2019-04-01T00:05:02.425Z,10.9
2019-04-01T00:06:03.667Z,10.7
2019-04-01T00:07:04.988Z,10.6
2019-04-01T00:08:06.206Z,10.6
2019-04-01T00:09:07.441Z,10.6
2019-04-01T00:10:08.672Z,10.5
2019-04-01T00:11:10.344Z,10.3
2019-04-01T00:12:12.369Z,10.5
2019-04-01T00:13:13.595Z,10.5
2019-04-01T00:14:14.818Z,10.6
2019-04-01T00:15:16.090Z,10.3
2019-04-01T00:16:17.337Z,10.3
2019-04-01T00:17:18.612Z,10.1
2019-04-01T00:18:19.849Z,10.3
2019-04-01T00:19:21.099Z,10.2
2019-04-01T00:20:22.341Z,10.4
2019-04-01T00:21:23.622Z,10.5
2019-04-01T00:22:24.951Z,10.6
2019-04-01T00:23:26.187Z,10.6
2019-04-01T00:24:27.438Z,10.5
2019-04-01T00:25:28.667Z,10.3
2019-04-01T00:26:30.000Z,10.2
2019-04-01T00:27:31.275Z,10
2019-04-01T00:28:32.499Z,9.8
2019-04-01T00:29:33.843Z,9.9
2019-04-01T00:30:35.057Z,9.8
2019-04-01T00:31:36.285Z,9.9
2019-04-01T00:32:37.544Z,9.6
2019-04-01T00:33:38.776Z,9.6
2019-04-01T00:34:39.987Z,9.9
2019-04-01T00:35:41.249Z,9.8
2019-04-01T00:36:42.484Z,10
2019-04-01T00:37:43.797Z,9.9
2019-04-01T00:38:45.026Z,9.7
2019-04-01T00:39:46.252Z,9.6
2019-04-01T00:40:47.491Z,9.9
2019-04-01T00:41:48.732Z,9.7
2019-04-01T00:42:50.009Z,9.7
2019-04-01T00:43:53.673Z,9.3
2019-04-01T00:44:54.918Z,9.6
2019-04-01T00:45:56.169Z,9.5
2019-04-01T00:46:57.404Z,9.5
2019-04-01T00:47:59.208Z,9.8
2019-04-01T00:49:00.440Z,9.3
2019-04-01T00:50:01.688Z,9.4
2019-04-01T00:51:03.039Z,9.5
2019-04-01T00:52:04.286Z,9.5
2019-04-01T00:53:05.602Z,9.7
2019-04-01T00:54:09.009Z,9.7
2019-04-01T00:55:10.233Z,9.9
2019-04-01T00:56:11.629Z,9.4
2019-04-01T00:57:12.869Z,9.7
2019-04-01T00:58:16.173Z,9.8
2019-04-01T00:59:17.427Z,9.6
2019-04-01T01:00:18.665Z,9.4
2019-04-01T01:01:19.941Z,9.4
2019-04-01T01:02:21.237Z,9.3
2019-04-01T01:03:22.508Z,9.1
2019-04-01T01:04:23.741Z,9.3
2019-04-01T01:05:25.327Z,9.5
2019-04-01T01:06:26.647Z,9.3
2019-04-01T01:07:27.888Z,9.1
2019-04-01T01:08:29.569Z,9.1
2019-04-01T01:09:30.817Z,9.2
2019-04-01T01:10:32.258Z,9.3
2019-04-01T01:11:33.473Z,9.3
2019-04-01T01:12:34.916Z,9.6
2019-04-01T01:13:36.165Z,9
2019-04-01T01:14:37.751Z,9
2019-04-01T01:15:38.995Z,9.3
2019-04-01T01:16:40.231Z,9.3
2019-04-01T01:17:41.489Z,9.3
2019-04-01T01:18:43.241Z,9.2
2019-04-01T01:19:44.477Z,9
2019-04-01T01:20:45.995Z,8.9
2019-04-01T01:21:47.233Z,9.3
2019-04-01T01:22:48.467Z,9.6
2019-04-01T01:23:49.771Z,9.6
2019-04-01T01:24:51.053Z,9.3
2019-04-01T01:25:52.271Z,9
2019-04-01T01:26:53.509Z,9.3
2019-04-01T01:27:54.786Z,9
2019-04-01T01:28:56.039Z,9.4
2019-04-01T01:29:57.267Z,9.3
2019-04-01T01:30:58.766Z,9
2019-04-01T01:32:00.197Z,8.9
2019-04-01T01:33:01.417Z,9
2019-04-01T01:34:02.661Z,9.1
2019-04-01T01:35:03.895Z,9.1
2019-04-01T01:36:05.125Z,9.3
2019-04-01T01:37:06.337Z,9.3
2019-04-01T01:38:07.558Z,9.1
2019-04-01T01:39:08.828Z,9.2
2019-04-01T01:40:10.064Z,9.2
2019-04-01T01:41:11.355Z,9.1
2019-04-01T01:43:29.792Z,9.1
2019-04-01T01:44:31.051Z,9.1
2019-04-01T01:45:32.386Z,9
2019-04-01T01:46:33.631Z,9.1
2019-04-01T01:47:34.863Z,8.7
2019-04-01T01:48:36.105Z,9
2019-04-01T01:49:37.383Z,9.1
2019-04-01T01:50:38.599Z,9.1
2019-04-01T01:51:39.851Z,9
2019-04-01T01:52:41.447Z,9.2
2019-04-01T01:53:42.669Z,9
2019-04-01T01:54:43.954Z,8.9
2019-04-01T01:55:45.210Z,8.9
2019-04-01T01:56:46.444Z,8.7
2019-04-01T01:57:47.860Z,8.6
2019-04-01T01:58:49.094Z,8.6
2019-04-01T01:59:50.341Z,8.8
2019-04-01T02:00:51.573Z,9
2019-04-01T02:01:52.799Z,8.8
2019-04-01T02:02:54.027Z,9
2019-04-01T02:03:55.244Z,9.2
2019-04-01T02:04:56.506Z,8.9
2019-04-01T02:05:59.673Z,9
2019-04-01T02:07:00.915Z,9.1
2019-04-01T02:08:02.153Z,9.2
2019-04-01T02:09:03.382Z,8.6
2019-04-01T02:10:04.990Z,9
2019-04-01T02:11:06.247Z,8.7
2019-04-01T02:12:07.642Z,8.9
2019-04-01T02:13:08.883Z,8.9
2019-04-01T02:14:10.109Z,8.8
2019-04-01T02:15:11.391Z,8.9
2019-04-01T02:16:12.926Z,8.9
2019-04-01T02:17:14.171Z,8.5
2019-04-01T02:18:15.400Z,8.5
2019-04-01T02:19:16.755Z,8.7
2019-04-01T02:20:18.018Z,8.6
2019-04-01T02:21:19.252Z,8.7
2019-04-01T02:22:20.488Z,8.6
2019-04-01T02:23:21.970Z,8.7
2019-04-01T02:24:23.202Z,8.9
2019-04-01T02:25:24.504Z,8.5
2019-04-01T02:26:25.738Z,8.3
2019-04-01T02:27:26.940Z,8.5
2019-04-01T02:28:28.169Z,8.8
2019-04-01T02:29:29.402Z,8.8
2019-04-01T02:30:30.662Z,8.8
2019-04-01T02:31:31.910Z,9.1
2019-04-01T02:32:33.117Z,8.8
2019-04-01T02:33:34.386Z,8.8
2019-04-01T02:34:35.648Z,8.7
2019-04-01T02:35:36.963Z,8.5
2019-04-01T02:36:38.235Z,8.5
2019-04-01T02:37:39.508Z,8.6
2019-04-01T02:38:40.722Z,8.8
2019-04-01T02:39:41.971Z,8.7
2019-04-01T02:40:43.814Z,8.8
2019-04-01T02:41:45.067Z,8.8
2019-04-01T02:42:46.308Z,8.4
2019-04-01T02:43:47.523Z,8.6
2019-04-01T02:44:48.749Z,8.9
2019-04-01T02:45:50.014Z,8.5
2019-04-01T02:46:51.260Z,8.7
2019-04-01T02:47:52.483Z,8.9
2019-04-01T02:48:53.733Z,9.2
2019-04-01T02:49:54.975Z,8.6
2019-04-01T02:50:56.265Z,8.6
2019-04-01T02:51:57.519Z,8.8
2019-04-01T02:52:58.758Z,8.7
2019-04-01T02:53:59.992Z,8.7
2019-04-01T02:55:06.031Z,8.5
2019-04-01T02:56:08.286Z,8.8
2019-04-01T02:57:09.538Z,8.6
2019-04-01T02:58:10.766Z,8.8
2019-04-01T02:59:12.016Z,8.8
2019-04-01T03:00:13.252Z,8.7
2019-04-01T03:01:14.865Z,8.9
2019-04-01T03:02:16.108Z,8.6
2019-04-01T03:03:17.342Z,8.8
2019-04-01T03:04:18.950Z,8.7
2019-04-01T03:05:20.229Z,8.3
2019-04-01T03:06:21.496Z,8.3
2019-04-01T03:07:22.722Z,8.6
2019-04-01T03:08:23.951Z,8.4
2019-04-01T03:09:25.238Z,8.1
2019-04-01T03:10:26.481Z,8.4
2019-04-01T03:11:27.767Z,8.5
2019-04-01T03:12:29.388Z,8.7
2019-04-01T03:13:30.629Z,8.6
2019-04-01T03:14:31.854Z,8.9
2019-04-01T03:15:33.105Z,8.8
2019-04-01T03:16:34.384Z,8.4
2019-04-01T03:17:35.643Z,8.3
2019-04-01T03:18:36.898Z,8.6
2019-04-01T03:19:38.172Z,8.6
2019-04-01T03:20:39.400Z,8.3
2019-04-01T03:21:40.656Z,8.1
2019-04-01T03:22:41.898Z,8.1
2019-04-01T03:23:43.153Z,8.1
2019-04-01T03:24:44.400Z,8.1
2019-04-01T03:25:45.656Z,8.4
2019-04-01T03:26:46.966Z,8.6
2019-04-01T03:27:48.219Z,8.2
2019-04-01T03:28:49.742Z,8.4
2019-04-01T03:29:50.993Z,8.5
2019-04-01T03:30:52.239Z,8.5
2019-04-01T03:31:53.528Z,8.6
2019-04-01T03:32:55.129Z,8.3
2019-04-01T03:33:56.505Z,8
2019-04-01T03:34:57.796Z,8.4
2019-04-01T03:35:59.070Z,8.4
2019-04-01T03:37:00.318Z,8.2
2019-04-01T03:38:01.618Z,8.2
2019-04-01T03:39:02.885Z,8.1
2019-04-01T03:40:04.337Z,8.4
2019-04-01T03:41:05.602Z,8.1
2019-04-01T03:42:07.272Z,8.3
2019-04-01T03:43:08.512Z,8.4
2019-04-01T03:44:09.853Z,8.3
2019-04-01T03:45:11.077Z,8.3
2019-04-01T03:46:12.445Z,8.2
2019-04-01T03:47:13.723Z,8.2
2019-04-01T03:48:14.989Z,8.1
2019-04-01T03:49:16.262Z,8.2
2019-04-01T03:50:17.505Z,8.2
2019-04-01T03:51:18.737Z,8.2
2019-04-01T03:52:20.003Z,8.3
2019-04-01T03:53:21.235Z,8.4
2019-04-01T03:54:22.492Z,8.4
2019-04-01T03:55:23.723Z,8.4
2019-04-01T03:56:25.115Z,8.2
2019-04-01T03:57:26.461Z,8.2
2019-04-01T03:58:27.694Z,8.1
2019-04-01T03:59:28.918Z,8
2019-04-01T04:00:30.146Z,8.1
2019-04-01T04:01:31.410Z,8.1
2019-04-01T04:02:32.697Z,8.1
2019-04-01T04:03:33.936Z,8.2
2019-04-01T04:04:35.172Z,8
2019-04-01T04:05:36.526Z,8.1
2019-04-01T04:06:37.799Z,8.3
2019-04-01T04:07:39.110Z,8.4
2019-04-01T04:08:40.358Z,7.9
2019-04-01T04:09:41.682Z,8.1
2019-04-01T04:10:42.924Z,8.1
2019-04-01T04:11:44.391Z,8.1
2019-04-01T04:12:45.684Z,7.9
2019-04-01T04:13:47.013Z,8
2019-04-01T04:14:50.984Z,7.9
2019-04-01T04:15:52.707Z,8.1
2019-04-01T04:16:53.931Z,7.9
2019-04-01T04:17:55.194Z,8.8
2019-04-01T04:18:56.443Z,10
2019-04-01T04:19:57.703Z,10.8
2019-04-01T04:20:59.056Z,11.2
2019-04-01T04:22:00.307Z,11.4
2019-04-01T04:23:01.594Z,11.6
2019-04-01T04:24:02.851Z,11.7
2019-04-01T04:25:04.102Z,11.8
2019-04-01T04:26:05.360Z,11.9
2019-04-01T04:27:10.815Z,12
2019-04-01T04:28:12.749Z,12.4
2019-04-01T04:29:15.040Z,12.6
2019-04-01T04:30:16.269Z,12.7
2019-04-01T04:31:17.482Z,12.6
2019-04-01T04:32:18.727Z,12.5
2019-04-01T04:33:20.023Z,12.3
2019-04-01T04:34:21.298Z,12.3
2019-04-01T04:35:22.573Z,12.3
2019-04-01T04:36:23.818Z,12.5
2019-04-01T04:37:27.241Z,12.7
2019-04-01T04:38:28.501Z,12.4
2019-04-01T04:39:29.729Z,12.3
2019-04-01T04:40:30.962Z,12.3
2019-04-01T04:41:32.199Z,12.3
2019-04-01T04:42:33.465Z,12.5
2019-04-01T04:43:34.966Z,12.5
2019-04-01T04:44:38.440Z,12.6
2019-04-01T04:45:39.671Z,12.5
2019-04-01T04:46:41.029Z,12.4
2019-04-01T04:47:42.296Z,12.4
2019-04-01T04:48:43.551Z,12.3
2019-04-01T04:49:44.795Z,12.5
2019-04-01T04:50:46.287Z,12.6
2019-04-01T04:51:47.518Z,12.6
2019-04-01T04:52:48.774Z,13
2019-04-01T04:53:52.484Z,12.9
2019-04-01T04:54:53.730Z,12.7
2019-04-01T04:55:54.953Z,12.7
2019-04-01T04:56:56.212Z,12.8
2019-04-01T04:57:57.456Z,12.8
2019-04-01T04:58:58.764Z,13
2019-04-01T05:00:00.011Z,13.3
2019-04-01T05:01:01.279Z,13.4
2019-04-01T05:02:04.496Z,13.4
2019-04-01T05:03:08.109Z,13.5
2019-04-01T05:04:09.374Z,13.8
2019-04-01T05:05:10.610Z,13.6
2019-04-01T05:06:11.828Z,13.6
2019-04-01T05:07:13.070Z,13.6
2019-04-01T05:08:14.298Z,13.6
2019-04-01T05:09:15.569Z,13.4
2019-04-01T05:10:16.804Z,13.3
2019-04-01T05:11:18.053Z,13.3
2019-04-01T05:12:19.277Z,13.5
2019-04-01T05:13:20.524Z,13.5
2019-04-01T05:14:24.312Z,13.6
2019-04-01T05:15:25.921Z,13.5
2019-04-01T05:16:27.419Z,13.6
2019-04-01T05:17:28.666Z,13.7
2019-04-01T05:18:29.923Z,13.6
2019-04-01T05:19:31.178Z,13.7
2019-04-01T05:20:32.390Z,13.9
2019-04-01T05:21:33.638Z,14.1
2019-04-01T05:22:34.878Z,14.1
2019-04-01T05:23:36.220Z,14
2019-04-01T05:24:37.466Z,14
2019-04-01T05:25:38.708Z,14
2019-04-01T05:26:39.946Z,14.3
2019-04-01T05:27:41.190Z,14.5
2019-04-01T05:28:42.402Z,14.6
2019-04-01T05:29:44.038Z,14.6
2019-04-01T05:30:45.307Z,14.7
2019-04-01T05:31:49.370Z,14.8
2019-04-01T05:33:00.786Z,14.8
2019-04-01T05:34:17.655Z,15.1
2019-04-01T05:35:18.908Z,15.1
2019-04-01T05:36:20.142Z,15.1
2019-04-01T05:37:21.386Z,15.1
2019-04-01T05:38:22.867Z,15.3
2019-04-01T05:39:24.116Z,15.4
2019-04-01T05:40:25.374Z,15.4
2019-04-01T05:41:26.628Z,15.5
2019-04-01T05:42:27.868Z,15.5
2019-04-01T05:43:29.090Z,15.5
2019-04-01T05:44:30.326Z,15.4
2019-04-01T05:45:31.754Z,15.5
2019-04-01T05:46:32.990Z,15.6
2019-04-01T05:47:34.229Z,15.6
2019-04-01T05:48:35.682Z,15.6
2019-04-01T05:49:36.918Z,15.5
2019-04-01T05:50:38.254Z,15.5
2019-04-01T05:51:39.492Z,15.4
2019-04-01T05:52:40.814Z,15.4
2019-04-01T05:53:45.055Z,15.5
2019-04-01T05:54:46.285Z,15.5
2019-04-01T05:55:47.539Z,15.5
2019-04-01T05:56:48.772Z,15.6
2019-04-01T05:57:49.997Z,15.6
2019-04-01T05:58:51.221Z,15.5
2019-04-01T05:59:52.723Z,15.5
2019-04-01T06:00:54.016Z,15.5
2019-04-01T06:01:55.442Z,15.6
2019-04-01T06:02:56.678Z,15.6
2019-04-01T06:03:57.918Z,15.6
2019-04-01T06:04:59.149Z,15.6
2019-04-01T06:06:00.412Z,15.7
2019-04-01T06:07:01.645Z,15.7
2019-04-01T06:08:03.013Z,15.8
2019-04-01T06:09:04.642Z,15.8
2019-04-01T06:10:05.868Z,15.9
2019-04-01T06:11:07.132Z,15.9
2019-04-01T06:12:08.369Z,15.9
2019-04-01T06:13:09.591Z,16
2019-04-01T06:14:10.842Z,16
2019-04-01T06:15:12.093Z,16
2019-04-01T06:16:13.419Z,16.1
2019-04-01T06:17:14.642Z,16.2
2019-04-01T06:18:15.893Z,16.2
2019-04-01T06:19:17.276Z,16.2
2019-04-01T06:20:19.531Z,16.3
2019-04-01T06:21:23.273Z,16.3
2019-04-01T06:22:24.497Z,16.4
2019-04-01T06:23:25.716Z,16.4
2019-04-01T06:24:26.949Z,16.5
2019-04-01T06:25:28.265Z,16.5
2019-04-01T06:26:29.531Z,16.5
2019-04-01T06:27:35.587Z,16.6
2019-04-01T06:28:36.817Z,16.7
2019-04-01T06:29:39.197Z,16.7
2019-04-01T06:30:41.460Z,16.8
2019-04-01T06:31:42.767Z,16.9
2019-04-01T06:32:44.085Z,16.9
2019-04-01T06:33:45.323Z,17
2019-04-01T06:34:52.509Z,17.1
2019-04-01T06:35:56.032Z,17.2
2019-04-01T06:36:57.305Z,17.2
2019-04-01T06:37:58.535Z,17.3
2019-04-01T06:39:02.267Z,17.4
2019-04-01T06:40:03.487Z,17.4
2019-04-01T06:41:04.720Z,17.4
2019-04-01T06:42:07.239Z,17.5
2019-04-01T06:43:08.663Z,17.5
2019-04-01T06:44:09.912Z,17.6
2019-04-01T06:45:11.133Z,17.7
2019-04-01T06:46:13.707Z,17.7
2019-04-01T06:47:15.314Z,17.8
2019-04-01T06:48:19.600Z,17.8
2019-04-01T06:49:20.843Z,17.9
2019-04-01T06:50:22.087Z,18
2019-04-01T06:51:23.335Z,18
2019-04-01T06:52:24.665Z,18.1
2019-04-01T06:53:26.273Z,18.2
2019-04-01T06:54:27.501Z,18.3
2019-04-01T06:55:28.728Z,18.3
2019-04-01T06:56:30.003Z,18.3
2019-04-01T06:57:31.272Z,18.4
2019-04-01T06:58:32.749Z,18.4
2019-04-01T06:59:36.985Z,18.4
2019-04-01T07:00:40.705Z,18.5
2019-04-01T07:01:44.043Z,18.6
2019-04-01T07:02:45.623Z,18.6
2019-04-01T07:03:49.043Z,18.7
2019-04-01T07:04:50.285Z,18.7
2019-04-01T07:05:51.516Z,18.8
2019-04-01T07:06:52.750Z,18.8
2019-04-01T07:07:54.027Z,18.9
2019-04-01T07:08:55.257Z,18.9
2019-04-01T07:09:56.488Z,19
2019-04-01T07:10:57.971Z,19
2019-04-01T07:11:59.201Z,19
2019-04-01T07:13:00.477Z,19.1
2019-04-01T07:14:01.749Z,19.2
2019-04-01T07:15:03.009Z,19.2
2019-04-01T07:16:15.096Z,19.3
2019-04-01T07:17:17.228Z,19.3
2019-04-01T07:18:18.772Z,19.4
2019-04-01T07:19:20.018Z,19.3
2019-04-01T07:20:21.251Z,19.4
2019-04-01T07:21:22.500Z,19.5
2019-04-01T07:22:24.029Z,19.5
2019-04-01T07:23:25.583Z,19.6
2019-04-01T07:24:26.819Z,19.6
2019-04-01T07:25:28.071Z,19.7
2019-04-01T07:26:29.590Z,19.7
2019-04-01T07:27:30.833Z,19.8
2019-04-01T07:28:33.519Z,19.8
2019-04-01T07:29:35.183Z,19.9
2019-04-01T07:30:36.430Z,19.9
2019-04-01T07:31:42.905Z,20
2019-04-01T07:32:44.292Z,20
2019-04-01T07:33:45.784Z,20
2019-04-01T07:34:47.006Z,20.1
2019-04-01T07:35:48.278Z,20.1
2019-04-01T07:36:49.525Z,20.2
2019-04-01T07:37:50.772Z,20.2
2019-04-01T07:38:52.053Z,20.3
2019-04-01T07:39:53.307Z,20.3
2019-04-01T07:40:54.564Z,20.4
2019-04-01T07:41:55.788Z,20.4
2019-04-01T07:42:57.589Z,20.4
2019-04-01T07:44:01.194Z,20.5
2019-04-01T07:45:02.480Z,20.5
2019-04-01T07:46:03.743Z,20.5
2019-04-01T07:47:08.934Z,20.6
2019-04-01T07:48:12.523Z,20.6
2019-04-01T07:49:14.439Z,20.7
2019-04-01T07:50:15.874Z,20.7
2019-04-01T07:51:17.130Z,20.8
2019-04-01T07:52:18.634Z,20.8
2019-04-01T07:53:20.931Z,20.9
2019-04-01T07:54:23.019Z,20.9
2019-04-01T07:55:24.244Z,21
2019-04-01T07:56:25.794Z,21
2019-04-01T07:57:27.080Z,21
2019-04-01T07:58:28.318Z,21.1
2019-04-01T07:59:29.592Z,21.1
2019-04-01T08:00:30.889Z,21.1
2019-04-01T08:01:34.347Z,21.1
2019-04-01T08:02:35.910Z,21.1
2019-04-01T08:03:37.207Z,21.2
2019-04-01T08:04:38.551Z,21.2
2019-04-01T08:05:39.802Z,21.3
2019-04-01T08:06:41.035Z,21.3
2019-04-01T08:07:42.277Z,21.4
2019-04-01T08:08:46.232Z,21.4
2019-04-01T08:09:47.613Z,21.5
2019-04-01T08:10:48.859Z,21.5
2019-04-01T08:11:50.328Z,21.5
2019-04-01T08:12:51.691Z,21.5
2019-04-01T08:13:53.776Z,21.5
2019-04-01T08:14:55.051Z,21.6
2019-04-01T08:15:56.300Z,21.6
2019-04-01T08:16:58.645Z,21.7
2019-04-01T08:18:00.134Z,21.7
2019-04-01T08:19:02.399Z,21.7
2019-04-01T08:20:03.731Z,21.8
2019-04-01T08:21:04.974Z,21.8
2019-04-01T08:22:06.243Z,21.9
2019-04-01T08:23:07.525Z,21.9
2019-04-01T08:24:10.839Z,21.9
2019-04-01T08:25:12.207Z,22
2019-04-01T08:26:13.828Z,22
2019-04-01T08:27:15.423Z,22
2019-04-01T08:28:16.648Z,22
2019-04-01T08:29:29.338Z,22.1
2019-04-01T08:30:31.658Z,22.1
2019-04-01T08:31:33.209Z,22.2
2019-04-01T08:32:34.454Z,22.2
2019-04-01T08:33:35.700Z,22.2
2019-04-01T08:34:36.954Z,22.2
2019-04-01T08:35:38.266Z,22.2
2019-04-01T08:36:39.519Z,22.3
2019-04-01T08:37:40.864Z,22.4
2019-04-01T08:38:42.233Z,22.4
2019-04-01T08:39:43.496Z,22.4
2019-04-01T08:40:44.773Z,22.4
2019-04-01T08:41:46.273Z,22.5
2019-04-01T08:42:49.024Z,22.5
2019-04-01T08:43:50.414Z,22.5
2019-04-01T08:44:51.891Z,22.5
2019-04-01T08:45:53.789Z,22.5
2019-04-01T08:46:55.258Z,22.6
2019-04-01T08:47:56.514Z,22.6
2019-04-01T08:48:57.763Z,22.6
2019-04-01T08:49:58.999Z,22.6
2019-04-01T08:51:00.594Z,22.6
2019-04-01T08:52:03.996Z,22.6
2019-04-01T08:53:05.265Z,22.7
2019-04-01T08:54:07.735Z,22.7
2019-04-01T08:55:09.198Z,22.7
2019-04-01T08:56:10.480Z,22.7
2019-04-01T08:57:11.735Z,22.7
2019-04-01T08:58:12.978Z,22.7
2019-04-01T08:59:14.418Z,22.8
2019-04-01T09:00:15.658Z,22.8
2019-04-01T09:01:16.927Z,22.8
2019-04-01T09:02:18.563Z,22.9
2019-04-01T09:03:19.964Z,22.9
2019-04-01T09:04:21.731Z,22.9
2019-04-01T09:05:24.051Z,22.9
2019-04-01T09:06:25.368Z,22.9
2019-04-01T09:07:26.611Z,22.9
2019-04-01T09:08:29.030Z,22.9
2019-04-01T09:09:30.258Z,22.9
2019-04-01T09:10:32.852Z,22.9
2019-04-01T09:11:38.156Z,22.9
2019-04-01T09:12:39.745Z,22.9
2019-04-01T09:13:40.990Z,22.9
2019-04-01T09:14:44.232Z,22.9
2019-04-01T09:15:46.290Z,22.9
2019-04-01T09:16:47.576Z,22.9
2019-04-01T09:17:51.179Z,22.9
2019-04-01T09:18:52.413Z,22.9
2019-04-01T09:19:55.863Z,22.8
2019-04-01T09:20:57.117Z,22.8
2019-04-01T09:21:58.650Z,22.8
2019-04-01T09:22:59.900Z,22.8
2019-04-01T09:24:01.179Z,22.7
2019-04-01T09:25:02.440Z,22.8
2019-04-01T09:26:03.682Z,22.7
2019-04-01T09:27:05.098Z,22.6
2019-04-01T09:28:06.602Z,22.6
2019-04-01T09:29:07.875Z,22.5
2019-04-01T09:30:09.131Z,22.6
2019-04-01T09:31:15.450Z,22.6
2019-04-01T09:32:16.742Z,22.6
2019-04-01T09:33:19.294Z,22.6
2019-04-01T09:34:20.526Z,22.6
2019-04-01T09:35:21.797Z,22.6
2019-04-01T09:36:25.512Z,22.6
2019-04-01T09:37:32.040Z,22.6
2019-04-01T09:38:33.530Z,22.6
2019-04-01T09:39:34.770Z,22.6
2019-04-01T09:40:36.015Z,22.6
2019-04-01T09:41:37.283Z,22.6
2019-04-01T09:42:38.566Z,22.6
2019-04-01T09:43:40.001Z,22.6
2019-04-01T09:44:41.254Z,22.6
2019-04-01T09:45:42.520Z,22.6
2019-04-01T09:46:45.994Z,22.6
2019-04-01T09:47:52.992Z,22.5
2019-04-01T09:48:56.459Z,22.5
2019-04-01T09:49:57.713Z,22.5
2019-04-01T09:51:00.272Z,22.5
2019-04-01T09:52:06.215Z,22.5
2019-04-01T09:53:08.297Z,22.4
2019-04-01T09:54:09.998Z,22.4
2019-04-01T09:55:11.286Z,22.4
2019-04-01T09:56:12.521Z,22.4
2019-04-01T09:57:17.619Z,22.4
2019-04-01T09:58:20.561Z,22.4
2019-04-01T09:59:21.862Z,22.4
2019-04-01T10:00:26.785Z,22.4
2019-04-01T10:01:28.781Z,22.3
2019-04-01T10:02:31.913Z,22.3
2019-04-01T10:03:34.066Z,22.3
2019-04-01T10:04:35.305Z,22.4
2019-04-01T10:05:36.562Z,22.3
2019-04-01T10:06:37.829Z,22.3
2019-04-01T10:07:40.355Z,22.3
2019-04-01T10:08:42.859Z,22.3
2019-04-01T10:09:44.242Z,22.3
2019-04-01T10:10:46.965Z,22.3
2019-04-01T10:11:48.277Z,22.3
2019-04-01T10:12:49.521Z,22.3
2019-04-01T10:13:50.817Z,22.3
2019-04-01T10:14:54.257Z,22.3
2019-04-01T10:15:58.322Z,22.3
2019-04-01T10:16:59.568Z,22.2
2019-04-01T10:18:01.840Z,22.2
2019-04-01T10:19:03.161Z,22.2
2019-04-01T10:20:07.538Z,22.2
2019-04-01T10:21:13.082Z,22.2
2019-04-01T10:22:17.585Z,22.2
2019-04-01T10:23:18.828Z,22.2
2019-04-01T10:24:20.162Z,22.2
2019-04-01T10:25:21.412Z,22.1
2019-04-01T10:26:22.683Z,22.1
2019-04-01T10:27:23.929Z,22.1
2019-04-01T10:28:27.754Z,22.1
2019-04-01T10:29:32.798Z,22.1
2019-04-01T10:30:34.041Z,22.1
2019-04-01T10:31:35.548Z,22.1
2019-04-01T10:32:36.771Z,22.1
2019-04-01T10:33:38.035Z,22
2019-04-01T10:34:39.983Z,22
2019-04-01T10:35:41.233Z,22
2019-04-01T10:36:42.876Z,22
2019-04-01T10:37:44.167Z,22
2019-04-01T10:38:46.773Z,22
2019-04-01T10:39:48.294Z,22
2019-04-01T10:40:50.782Z,22
2019-04-01T10:41:53.469Z,21.9
2019-04-01T10:42:57.599Z,21.9
2019-04-01T10:43:59.085Z,21.9
2019-04-01T10:45:00.410Z,21.9
2019-04-01T10:46:01.712Z,21.9
2019-04-01T10:47:02.949Z,21.9
2019-04-01T10:48:04.244Z,21.9
2019-04-01T10:49:05.855Z,21.9
2019-04-01T10:50:08.837Z,21.8
2019-04-01T10:51:10.507Z,21.8
2019-04-01T10:52:15.986Z,21.8
2019-04-01T10:53:28.203Z,21.8
2019-04-01T10:54:29.915Z,21.8
2019-04-01T10:55:31.373Z,21.8
2019-04-01T10:56:35.989Z,21.8
2019-04-01T10:57:37.693Z,21.7
2019-04-01T10:58:39.276Z,21.8
2019-04-01T10:59:40.658Z,21.7
2019-04-01T11:00:42.048Z,21.7
2019-04-01T11:01:43.361Z,21.7
2019-04-01T11:02:45.854Z,21.7
2019-04-01T11:03:50.836Z,21.7
2019-04-01T11:04:58.609Z,21.6
2019-04-01T11:06:01.273Z,21.6
2019-04-01T11:07:02.612Z,21.6
2019-04-01T11:08:06.288Z,21.6
2019-04-01T11:09:07.920Z,21.6
2019-04-01T11:10:11.267Z,21.6
2019-04-01T11:11:13.213Z,21.6
2019-04-01T11:12:14.449Z,21.6
2019-04-01T11:13:21.803Z,21.5
2019-04-01T11:14:27.830Z,21.5
2019-04-01T11:15:36.407Z,21.5
2019-04-01T11:16:40.113Z,21.5
2019-04-01T11:17:41.350Z,21.5
2019-04-01T11:18:42.728Z,21.5
2019-04-01T11:19:43.956Z,21.5
2019-04-01T11:20:45.212Z,21.5
2019-04-01T11:21:46.486Z,21.5
2019-04-01T11:22:48.117Z,21.5
2019-04-01T11:23:49.495Z,21.4
2019-04-01T11:24:50.768Z,21.4
2019-04-01T11:25:52.002Z,21.4
2019-04-01T11:26:53.572Z,21.4
2019-04-01T11:27:58.856Z,21.4
2019-04-01T11:29:00.102Z,21.4
2019-04-01T11:30:03.357Z,21.3
2019-04-01T11:31:04.580Z,21.3
2019-04-01T11:32:07.739Z,21.3
2019-04-01T11:33:16.290Z,21.2
2019-04-01T11:34:19.335Z,21.3
2019-04-01T11:35:21.810Z,21.3
2019-04-01T11:36:25.400Z,21.3
2019-04-01T11:37:26.760Z,21.3
2019-04-01T11:38:28.055Z,21.2
2019-04-01T11:39:29.416Z,21.2
2019-04-01T11:40:30.738Z,21.2
2019-04-01T11:41:32.058Z,21.2
2019-04-01T11:42:40.148Z,21.2
2019-04-01T11:43:41.920Z,21.2
2019-04-01T11:44:43.468Z,21.2
2019-04-01T11:45:45.621Z,21.2
2019-04-01T11:46:46.964Z,21.1
2019-04-01T11:47:48.684Z,21.2
2019-04-01T11:48:50.126Z,21.2
2019-04-01T11:49:51.408Z,21.1
2019-04-01T11:50:55.045Z,21.1
2019-04-01T11:51:56.400Z,21.1
2019-04-01T11:52:58.078Z,21.1
2019-04-01T11:53:59.379Z,21
2019-04-01T11:55:00.616Z,21
2019-04-01T11:56:01.856Z,21
2019-04-01T11:57:03.110Z,21
2019-04-01T11:58:04.390Z,21.1
2019-04-01T11:59:05.635Z,20.9
2019-04-01T12:00:10.384Z,21
2019-04-01T12:01:14.090Z,21
2019-04-01T12:02:15.823Z,21
2019-04-01T12:03:17.854Z,21
2019-04-01T12:04:21.807Z,21
2019-04-01T12:05:23.272Z,21
2019-04-01T12:06:24.508Z,21
2019-04-01T12:07:26.291Z,21
2019-04-01T12:08:27.566Z,21
2019-04-01T12:09:28.794Z,21
2019-04-01T12:10:30.062Z,20.9
2019-04-01T12:11:31.274Z,20.9
2019-04-01T12:12:36.552Z,20.9
2019-04-01T12:13:38.032Z,21
2019-04-01T12:14:39.272Z,20.9
2019-04-01T12:15:44.540Z,20.9
2019-04-01T12:16:45.782Z,20.9
2019-04-01T12:17:47.454Z,20.9
2019-04-01T12:18:48.716Z,20.8
2019-04-01T12:19:53.018Z,20.9
2019-04-01T12:20:54.576Z,20.9
2019-04-01T12:21:55.794Z,20.9
2019-04-01T12:22:57.544Z,20.9
2019-04-01T12:23:58.808Z,20.9
2019-04-01T12:25:00.053Z,20.9
2019-04-01T12:26:14.205Z,20.8
2019-04-01T12:27:18.302Z,20.8
2019-04-01T12:28:19.548Z,20.8
2019-04-01T12:29:20.855Z,20.7
2019-04-01T12:30:22.103Z,20.8
2019-04-01T12:31:23.344Z,20.7
2019-04-01T12:32:24.582Z,20.8
2019-04-01T12:33:29.319Z,20.7
2019-04-01T12:34:30.594Z,20.7
2019-04-01T12:35:31.830Z,20.7
2019-04-01T12:36:33.090Z,20.7
2019-04-01T12:37:37.575Z,20.7
2019-04-01T12:38:40.987Z,20.7
2019-04-01T12:39:42.408Z,20.7
2019-04-01T12:40:43.664Z,20.7
2019-04-01T12:41:45.100Z,20.7
2019-04-01T12:42:50.520Z,20.7
2019-04-01T12:43:52.241Z,20.6
2019-04-01T12:44:53.601Z,20.6
2019-04-01T12:45:55.035Z,20.6
2019-04-01T12:46:56.278Z,20.6
2019-04-01T12:47:58.562Z,20.6
2019-04-01T12:49:01.873Z,20.6
2019-04-01T12:50:03.453Z,20.6
2019-04-01T12:51:04.726Z,20.6
2019-04-01T12:52:05.958Z,20.5
2019-04-01T12:53:07.174Z,20.5
2019-04-01T12:54:08.870Z,20.6
2019-04-01T12:55:10.260Z,20.5
2019-04-01T12:56:11.489Z,20.5
2019-04-01T12:57:18.519Z,20.5
2019-04-01T12:58:25.003Z,20.5
2019-04-01T12:59:26.691Z,20.5
2019-04-01T13:00:29.266Z,20.5
2019-04-01T13:01:30.683Z,20.5
2019-04-01T13:02:32.096Z,20.5
2019-04-01T13:03:33.379Z,20.5
2019-04-01T13:04:36.133Z,20.5
2019-04-01T13:05:37.586Z,20.5
2019-04-01T13:06:42.249Z,20.5
2019-04-01T13:07:43.637Z,20.5
2019-04-01T13:08:45.981Z,20.4
2019-04-01T13:09:49.477Z,20.4
2019-04-01T13:10:52.247Z,20.4
2019-04-01T13:11:57.212Z,20.3
2019-04-01T13:12:58.881Z,20.3
2019-04-01T13:14:00.145Z,20.3
2019-04-01T13:15:01.697Z,20.3
2019-04-01T13:16:02.991Z,20.3
2019-04-01T13:17:04.224Z,20.3
2019-04-01T13:18:05.462Z,20.3
2019-04-01T13:19:07.332Z,20.2
2019-04-01T13:20:08.612Z,20.3
2019-04-01T13:21:10.966Z,20.3
2019-04-01T13:22:15.264Z,20.3
2019-04-01T13:23:17.008Z,20.3
2019-04-01T13:24:18.321Z,20.3
2019-04-01T13:25:21.294Z,20.3
2019-04-01T13:26:23.645Z,20.3
2019-04-01T13:27:24.886Z,20.2
2019-04-01T13:28:26.399Z,20.2
2019-04-01T13:29:29.297Z,20.1
2019-04-01T13:30:30.563Z,20.1
2019-04-01T13:31:34.280Z,20.1
2019-04-01T13:32:35.539Z,20.1
2019-04-01T13:33:36.865Z,20.1
2019-04-01T13:34:38.261Z,20.1
2019-04-01T13:35:39.866Z,20.1
2019-04-01T13:36:41.702Z,20.1
2019-04-01T13:37:44.153Z,20
2019-04-01T13:38:45.377Z,20.1
2019-04-01T13:39:47.935Z,20.1
2019-04-01T13:40:49.197Z,20
2019-04-01T13:41:50.791Z,20.1
2019-04-01T13:42:52.039Z,20.1
2019-04-01T13:43:53.281Z,20
2019-04-01T13:44:54.516Z,20
2019-04-01T13:45:55.755Z,20
2019-04-01T13:46:57.289Z,20
2019-04-01T13:47:58.531Z,20
2019-04-01T13:49:04.130Z,20
2019-04-01T13:50:05.644Z,20
2019-04-01T13:51:06.892Z,20
2019-04-01T13:52:08.209Z,20
2019-04-01T13:53:09.696Z,20
2019-04-01T13:54:11.934Z,20
2019-04-01T13:55:13.653Z,19.9
2019-04-01T13:56:14.899Z,20
2019-04-01T13:57:16.205Z,19.9
2019-04-01T13:58:17.859Z,19.9